Time;durP1;ratioP1;P1;durP2;ratioP2;P2;SDS_P1;SDS_P2;PMS_P1;PMS_P2;Temp;Humidity;BMP_temperature;BMP_pressure;BME280_temperature;BME280_humidity;BME280_pressure;Samples;Min_cycle;Max_cycle;Signal;HPM_P1;HPM_P2
2024/01/29 03:47:33;;;;;;;;;;;4.70;99.90;;;;;;2625592;46;20386;-78
2024/01/29 03:50:03;;;;;;;;;;;2.70;99.90;;;;;;2623970;54;19950;-77
2024/01/29 03:52:33;;;;;;;;;;;2.60;99.90;;;;;;2620316;47;19941;-77
2024/01/29 03:55:02;;;;;;;;;;;2.60;99.90;;;;;;2620068;39;20356;-77
2024/01/29 03:57:32;;;;;;;;;;;2.60;99.90;;;;;;2618673;47;19950;-77
2024/01/29 04:00:02;;;;;;;;;;;2.70;99.90;;;;;;2618342;47;20442;-76
2024/01/29 04:02:35;;;;;;;;;;;2.10;99.90;;;;;;2618278;47;20052;-76
2024/01/29 04:05:05;;;;;;;;;;;2.60;99.90;;;;;;2622874;47;19999;-76
2024/01/29 04:07:35;;;;;;;;;;;2.60;99.90;;;;;;2618942;39;20381;-77
2024/01/29 04:10:05;;;;;;;;;;;2.60;99.90;;;;;;2620475;47;19947;-77
2024/01/29 04:12:35;;;;;;;;;;;2.60;99.90;;;;;;2619235;54;19955;-77
2024/01/29 04:15:06;;;;;;;;;;;2.70;99.90;;;;;;2621646;54;19953;-77
2024/01/29 04:17:39;;;;;;;;;;;2.70;99.90;;;;;;2628984;47;19994;-77
2024/01/29 04:20:09;;;;;;;;;;;2.70;99.90;;;;;;2625288;47;19946;-75
2024/01/29 04:22:39;;;;;;;;;;;2.70;99.90;;;;;;2618487;47;20060;-77
2024/01/29 04:25:09;;;;;;;;;;;2.60;99.90;;;;;;2619219;54;19991;-79
2024/01/29 04:27:39;;;;;;;;;;;2.60;99.90;;;;;;2618979;54;19939;-78
2024/01/29 04:30:10;;;;;;;;;;;2.60;99.90;;;;;;2618488;54;19945;-78
2024/01/29 04:32:42;;;;;;;;;;;2.60;99.90;;;;;;2618113;54;19935;-78
2024/01/29 04:35:12;;;;;;;;;;;2.60;99.90;;;;;;2617970;54;19935;-78
2024/01/29 04:37:42;;;;;;;;;;;2.60;99.90;;;;;;2616908;49;20924;-77
2024/01/29 04:40:14;;;;;;;;;;;2.60;99.90;;;;;;2619043;31;20397;-77
2024/01/29 04:42:44;;;;;;;;;;;2.60;99.90;;;;;;2618902;39;20398;-77
2024/01/29 04:45:14;;;;;;;;;;;2.70;99.90;;;;;;2618820;47;19938;-77
2024/01/29 04:47:46;;;;;;;;;;;2.60;99.90;;;;;;2618594;47;20418;-77
2024/01/29 04:50:16;;;;;;;;;;;2.60;99.90;;;;;;2619012;54;19945;-77
2024/01/29 04:52:46;;;;;;;;;;;2.60;99.90;;;;;;2620394;31;20388;-78
2024/01/29 04:55:16;;;;;;;;;;;3.80;99.90;;;;;;2618923;54;20007;-77
2024/01/29 04:57:46;;;;;;;;;;;2.60;99.90;;;;;;2618687;51;19954;-78
2024/01/29 05:00:16;;;;;;;;;;;2.50;99.90;;;;;;2618797;47;19946;-77
2024/01/29 05:02:49;;;;;;;;;;;2.00;99.90;;;;;;2621754;47;19939;-77
2024/01/29 05:05:19;;;;;;;;;;;2.60;99.90;;;;;;2623515;54;19988;-76
2024/01/29 05:07:51;;;;;;;;;;;2.60;99.90;;;;;;2629918;39;20406;-78
2024/01/29 05:10:21;;;;;;;;;;;2.60;99.90;;;;;;2621537;47;19946;-77
2024/01/29 05:12:51;;;;;;;;;;;2.60;99.90;;;;;;2621799;47;19962;-79
2024/01/29 05:15:21;;;;;;;;;;;2.50;99.90;;;;;;2628087;47;19947;-79
2024/01/29 05:17:53;;;;;;;;;;;2.50;99.90;;;;;;2628221;47;19958;-78
2024/01/29 05:20:23;;;;;;;;;;;2.50;99.90;;;;;;2623156;46;19951;-78
2024/01/29 05:22:53;;;;;;;;;;;2.50;99.90;;;;;;2620838;47;19953;-80
2024/01/29 05:25:24;;;;;;;;;;;2.50;99.90;;;;;;2625002;46;19947;-80
2024/01/29 05:27:54;;;;;;;;;;;2.60;99.90;;;;;;2626317;47;19976;-79
2024/01/29 05:30:24;;;;;;;;;;;2.60;99.90;;;;;;2622460;54;20755;-79
2024/01/29 05:32:56;;;;;;;;;;;2.60;99.90;;;;;;2623591;47;19942;-79
2024/01/29 05:35:26;;;;;;;;;;;2.60;99.90;;;;;;2623461;47;19956;-79
2024/01/29 05:37:56;;;;;;;;;;;2.60;99.90;;;;;;2627323;54;19957;-79
2024/01/29 05:40:26;;;;;;;;;;;2.60;99.90;;;;;;2627673;54;19945;-80
2024/01/29 05:42:56;;;;;;;;;;;1.60;99.90;;;;;;2624107;47;19939;-81
2024/01/29 05:45:26;;;;;;;;;;;2.60;99.90;;;;;;2622439;47;19950;-78
2024/01/29 05:48:03;;;;;;;;;;;2.70;99.90;;;;;;2621836;39;20497;-80
2024/01/29 05:50:33;;;;;;;;;;;2.70;99.90;;;;;;2625273;47;20024;-80
2024/01/29 05:53:03;;;;;;;;;;;2.70;99.90;;;;;;2623908;54;19947;-79
2024/01/29 05:55:32;;;;;;;;;;;2.60;99.90;;;;;;2627419;39;20609;-79
2024/01/29 05:58:02;;;;;;;;;;;2.60;99.90;;;;;;2623276;54;19985;-79
2024/01/29 06:00:32;;;;;;;;;;;2.50;99.90;;;;;;2624172;47;19950;-79
2024/01/29 06:03:05;;;;;;;;;;;2.60;99.90;;;;;;2624611;54;20068;-79
2024/01/29 06:05:35;;;;;;;;;;;2.60;99.90;;;;;;2620598;47;19988;-79
2024/01/29 06:08:05;;;;;;;;;;;2.50;99.90;;;;;;2620267;47;20469;-78
2024/01/29 06:10:35;;;;;;;;;;;2.50;99.90;;;;;;2622515;54;19971;-78
2024/01/29 06:13:05;;;;;;;;;;;2.50;99.90;;;;;;2627703;54;19942;-79
2024/01/29 06:15:35;;;;;;;;;;;2.50;99.90;;;;;;2628224;54;19964;-79
2024/01/29 06:18:09;;;;;;;;;;;2.50;99.90;;;;;;2628920;54;19942;-80
2024/01/29 06:20:39;;;;;;;;;;;2.50;99.90;;;;;;2626085;54;19947;-79
2024/01/29 06:23:09;;;;;;;;;;;2.50;99.90;;;;;;2628169;54;19949;-80
2024/01/29 06:25:39;;;;;;;;;;;3.10;99.90;;;;;;2630230;47;19945;-80
2024/01/29 06:28:09;;;;;;;;;;;2.50;99.90;;;;;;2630105;47;19975;-81
2024/01/29 06:30:39;;;;;;;;;;;2.60;99.90;;;;;;2630200;47;19995;-79
2024/01/29 06:33:12;;;;;;;;;;;3.40;99.90;;;;;;2630135;47;19943;-79
2024/01/29 06:35:42;;;;;;;;;;;2.60;99.90;;;;;;2628330;54;20881;-79
2024/01/29 06:38:12;;;;;;;;;;;2.60;99.90;;;;;;2629442;54;19967;-79
2024/01/29 06:40:42;;;;;;;;;;;2.60;99.90;;;;;;2630196;54;19927;-78
2024/01/29 06:43:12;;;;;;;;;;;2.60;99.90;;;;;;2629817;54;19952;-79
2024/01/29 06:45:41;;;;;;;;;;;2.60;99.90;;;;;;2630184;54;19965;-80
2024/01/29 06:48:14;;;;;;;;;;;2.50;99.90;;;;;;2629527;54;19949;-79
2024/01/29 06:50:44;;;;;;;;;;;2.50;99.90;;;;;;2630153;47;19949;-79
2024/01/29 06:53:14;;;;;;;;;;;2.50;99.90;;;;;;2629987;54;19950;-80
2024/01/29 06:55:44;;;;;;;;;;;2.50;99.90;;;;;;2630034;54;19943;-79
2024/01/29 06:58:14;;;;;;;;;;;3.20;99.90;;;;;;2629556;54;19949;-80
2024/01/29 07:00:44;;;;;;;;;;;2.50;99.90;;;;;;2629938;54;20094;-80
2024/01/29 07:03:16;;;;;;;;;;;2.50;99.90;;;;;;2627031;54;19957;-79
2024/01/29 07:05:48;;;;;;;;;;;2.50;99.90;;;;;;2624945;47;20002;-78
2024/01/29 07:08:18;;;;;;;;;;;2.50;99.90;;;;;;2623921;54;19927;-79
2024/01/29 07:10:48;;;;;;;;;;;2.40;99.90;;;;;;2628360;47;19926;-79
2024/01/29 07:13:18;;;;;;;;;;;2.40;99.90;;;;;;2625764;47;19939;-79
2024/01/29 07:15:48;;;;;;;;;;;3.40;99.90;;;;;;2623515;54;19983;-79
2024/01/29 07:18:20;;;;;;;;;;;2.40;99.90;;;;;;2626831;47;19942;-80
2024/01/29 07:20:50;;;;;;;;;;;2.70;99.90;;;;;;2625277;54;19946;-78
2024/01/29 07:23:21;;;;;;;;;;;2.50;99.90;;;;;;2627368;47;19975;-79
2024/01/29 07:25:50;;;;;;;;;;;2.40;99.90;;;;;;2627267;54;20479;-80
2024/01/29 07:28:20;;;;;;;;;;;2.50;99.90;;;;;;2621643;47;19950;-79
2024/01/29 07:30:50;;;;;;;;;;;2.60;99.90;;;;;;2622544;47;19946;-80
2024/01/29 07:33:23;;;;;;;;;;;2.60;99.90;;;;;;2623701;54;19946;-79
2024/01/29 07:35:53;;;;;;;;;;;2.70;99.90;;;;;;2623430;47;19951;-80
2024/01/29 07:38:22;;;;;;;;;;;3.10;99.90;;;;;;2622585;54;19942;-79
2024/01/29 07:40:52;;;;;;;;;;;3.00;99.90;;;;;;2623542;47;19953;-79
2024/01/29 07:43:22;;;;;;;;;;;2.80;99.90;;;;;;2623756;54;19951;-81
2024/01/29 07:45:52;;;;;;;;;;;2.80;99.90;;;;;;2625250;47;19964;-82
2024/01/29 07:48:25;;;;;;;;;;;2.80;99.90;;;;;;2627873;47;19939;-81
2024/01/29 07:50:55;;;;;;;;;;;2.80;99.90;;;;;;2627827;47;19984;-82
2024/01/29 07:53:24;;;;;;;;;;;2.80;99.90;;;;;;2627884;47;19965;-81
2024/01/29 07:55:54;;;;;;;;;;;3.00;99.90;;;;;;2627272;47;19952;-82
2024/01/29 07:58:24;;;;;;;;;;;2.90;99.90;;;;;;2627681;54;19957;-82
2024/01/29 08:00:54;;;;;;;;;;;2.90;99.90;;;;;;2624853;47;19995;-79
2024/01/29 08:03:27;;;;;;;;;;;3.00;99.90;;;;;;2621676;46;19966;-78
2024/01/29 08:05:57;;;;;;;;;;;3.00;99.90;;;;;;2624581;46;20003;-79
2024/01/29 08:08:28;;;;;;;;;;;3.00;99.90;;;;;;2620711;54;20050;-79
2024/01/29 08:11:00;;;;;;;;;;;3.10;99.90;;;;;;2621218;54;19947;-78
2024/01/29 08:13:30;;;;;;;;;;;3.30;99.90;;;;;;2618203;47;19964;-78
2024/01/29 08:16:01;;;;;;;;;;;3.20;99.90;;;;;;2617611;47;19980;-79
2024/01/29 08:18:34;;;;;;;;;;;3.30;99.90;;;;;;2619046;47;19954;-78
2024/01/29 08:21:04;;;;;;;;;;;3.30;99.90;;;;;;2612346;47;20604;-76
2024/01/29 08:23:34;;;;;;;;;;;3.30;99.90;;;;;;2614180;47;21470;-78
2024/01/29 08:26:04;;;;;;;;;;;3.50;99.90;;;;;;2620428;54;19959;-77
2024/01/29 08:28:34;;;;;;;;;;;3.70;99.90;;;;;;2614749;54;19958;-78
2024/01/29 08:31:05;;;;;;;;;;;3.40;99.90;;;;;;2618229;47;19950;-77
2024/01/29 08:33:38;;;;;;;;;;;3.50;99.90;;;;;;2615864;54;19954;-77
2024/01/29 08:36:08;;;;;;;;;;;3.50;99.90;;;;;;2614519;54;19991;-77
2024/01/29 08:38:38;;;;;;;;;;;3.60;99.90;;;;;;2617844;54;19996;-78
2024/01/29 08:41:07;;;;;;;;;;;3.60;99.90;;;;;;2626980;47;19939;-78
2024/01/29 08:43:37;;;;;;;;;;;3.70;99.90;;;;;;2626850;46;19946;-78
2024/01/29 08:46:07;;;;;;;;;;;3.70;99.90;;;;;;2623081;46;19935;-79
2024/01/29 08:48:40;;;;;;;;;;;3.80;99.90;;;;;;2624336;54;19981;-79
2024/01/29 08:51:10;;;;;;;;;;;3.80;99.90;;;;;;2615717;39;20377;-80
2024/01/29 08:53:40;;;;;;;;;;;3.90;99.90;;;;;;2615269;54;20023;-79
2024/01/29 08:56:11;;;;;;;;;;;3.90;99.90;;;;;;2613773;47;19946;-80
2024/01/29 08:58:41;;;;;;;;;;;4.00;99.90;;;;;;2619779;47;19926;-78
2024/01/29 09:01:11;;;;;;;;;;;4.10;99.90;;;;;;2622375;54;19964;-78
2024/01/29 09:03:44;;;;;;;;;;;4.10;99.90;;;;;;2623246;47;19922;-80
2024/01/29 09:06:13;;;;;;;;;;;4.20;99.90;;;;;;2627744;54;19938;-81
2024/01/29 09:08:44;;;;;;;;;;;5.00;99.90;;;;;;2628382;54;19933;-79
2024/01/29 09:11:13;;;;;;;;;;;4.30;99.90;;;;;;2628866;46;19926;-81
2024/01/29 09:13:43;;;;;;;;;;;4.40;99.90;;;;;;2627525;47;20457;-79
2024/01/29 09:16:13;;;;;;;;;;;4.40;99.90;;;;;;2636310;39;20392;-78
2024/01/29 09:18:46;;;;;;;;;;;5.20;99.90;;;;;;2623965;47;19989;-78
2024/01/29 09:21:15;;;;;;;;;;;4.50;99.90;;;;;;2619432;54;19952;-78
2024/01/29 09:24:00;;;;;;;;;;;4.60;99.90;;;;;;2619507;47;19946;-78
2024/01/29 09:26:30;;;;;;;;;;;4.70;99.90;;;;;;2620678;47;19947;-78
2024/01/29 09:29:00;;;;;;;;;;;4.80;99.90;;;;;;2619977;46;20037;-78
2024/01/29 09:31:29;;;;;;;;;;;5.10;99.90;;;;;;2619076;54;19954;-78
2024/01/29 09:34:03;;;;;;;;;;;4.90;99.90;;;;;;2619323;54;19946;-78
2024/01/29 09:36:32;;;;;;;;;;;5.00;99.90;;;;;;2622090;47;19957;-80
2024/01/29 09:39:02;;;;;;;;;;;5.10;99.90;;;;;;2629399;54;19984;-79
2024/01/29 09:41:34;;;;;;;;;;;5.10;99.90;;;;;;2621713;47;20460;-79
2024/01/29 09:44:06;;;;;;;;;;;5.20;99.90;;;;;;2619898;47;19939;-78
2024/01/29 09:46:40;;;;;;;;;;;5.20;99.90;;;;;;2624285;54;19983;-82
2024/01/29 09:49:13;;;;;;;;;;;5.30;99.90;;;;;;2630003;47;19927;-80
2024/01/29 09:51:46;;;;;;;;;;;5.30;99.90;;;;;;2629249;54;19946;-82
2024/01/29 09:54:16;;;;;;;;;;;5.30;99.90;;;;;;2632322;39;20579;-82
2024/01/29 09:56:46;;;;;;;;;;;5.30;99.90;;;;;;2630030;46;19950;-82
2024/01/29 09:59:16;;;;;;;;;;;5.50;99.90;;;;;;2630459;46;20314;-84
2024/01/29 10:01:46;;;;;;;;;;;5.80;99.90;;;;;;2629204;54;19943;-80
2024/01/29 10:04:21;;;;;;;;;;;5.50;99.90;;;;;;2630375;47;19949;-83
2024/01/29 10:06:51;;;;;;;;;;;5.50;99.90;;;;;;2630738;47;19926;-80
2024/01/29 10:09:21;;;;;;;;;;;5.50;99.90;;;;;;2630570;54;20935;-83
2024/01/29 10:11:52;;;;;;;;;;;5.60;99.90;;;;;;2628542;54;19948;-82
2024/01/29 10:14:21;;;;;;;;;;;5.60;99.90;;;;;;2628745;47;20568;-82
2024/01/29 10:16:51;;;;;;;;;;;5.90;99.90;;;;;;2604155;47;20482;-74
2024/01/29 10:19:23;;;;;;;;;;;5.70;99.90;;;;;;2596467;47;20244;-74
2024/01/29 10:21:53;;;;;;;;;;;5.70;99.90;;;;;;2596296;54;19951;-73
2024/01/29 10:24:23;;;;;;;;;;;5.80;99.90;;;;;;2605246;47;19951;-73
2024/01/29 10:26:53;;;;;;;;;;;5.80;99.90;;;;;;2609520;54;19958;-73
2024/01/29 10:29:22;;;;;;;;;;;5.90;99.90;;;;;;2609649;47;19939;-73
2024/01/29 10:31:52;;;;;;;;;;;6.00;99.90;;;;;;2602428;54;19946;-73
2024/01/29 10:34:24;;;;;;;;;;;6.10;99.90;;;;;;2599959;54;19953;-74
2024/01/29 10:36:55;;;;;;;;;;;6.20;99.90;;;;;;2598367;47;19950;-76
2024/01/29 10:39:26;;;;;;;;;;;6.40;99.90;;;;;;2600345;47;19938;-80
2024/01/29 10:41:57;;;;;;;;;;;6.50;99.90;;;;;;2606854;47;19951;-76
2024/01/29 10:44:27;;;;;;;;;;;6.60;99.90;;;;;;2608263;54;20038;-79
2024/01/29 10:47:01;;;;;;;;;;;6.60;99.90;;;;;;2602468;54;20037;-76
2024/01/29 10:49:33;;;;;;;;;;;6.70;99.90;;;;;;2606170;47;19954;-76
2024/01/29 10:52:04;;;;;;;;;;;6.80;99.90;;;;;;2601163;54;20643;-76
2024/01/29 10:54:34;;;;;;;;;;;6.90;99.90;;;;;;2603475;47;19958;-76
2024/01/29 10:57:09;;;;;;;;;;;6.90;99.90;;;;;;2606876;54;19950;-75
2024/01/29 10:59:41;;;;;;;;;;;6.90;99.90;;;;;;2604252;54;21539;-76
2024/01/29 11:02:12;;;;;;;;;;;7.10;99.90;;;;;;2605108;39;20316;-75
2024/01/29 11:04:45;;;;;;;;;;;7.20;99.90;;;;;;2605843;47;19951;-77
2024/01/29 11:07:16;;;;;;;;;;;7.30;99.90;;;;;;2605014;47;19976;-75
2024/01/29 11:09:50;;;;;;;;;;;7.70;99.90;;;;;;2606757;54;19954;-77
2024/01/29 11:12:20;;;;;;;;;;;7.50;99.90;;;;;;2607194;47;19950;-77
2024/01/29 11:14:58;;;;;;;;;;;7.60;99.90;;;;;;2607760;46;20010;-77
2024/01/29 11:17:28;;;;;;;;;;;7.60;99.90;;;;;;2606554;47;19972;-78
2024/01/29 11:20:04;;;;;;;;;;;7.70;99.90;;;;;;2606853;47;19961;-78
2024/01/29 11:22:37;;;;;;;;;;;7.80;99.90;;;;;;2605256;47;20597;-77
2024/01/29 11:25:08;;;;;;;;;;;7.80;99.90;;;;;;2605654;47;19953;-77
2024/01/29 11:27:39;;;;;;;;;;;7.80;99.90;;;;;;2607209;47;20632;-77
2024/01/29 11:30:18;;;;;;;;;;;7.80;99.90;;;;;;2605127;47;19947;-79
2024/01/29 11:32:48;;;;;;;;;;;7.70;99.90;;;;;;2605237;54;20021;-79
2024/01/29 11:35:22;;;;;;;;;;;7.70;99.90;;;;;;2604270;47;19951;-77
2024/01/29 11:38:09;;;;;;;;;;;7.70;99.90;;;;;;2606031;47;19962;-78
2024/01/29 11:40:40;;;;;;;;;;;7.80;99.90;;;;;;2602361;54;19950;-78
2024/01/29 11:43:14;;;;;;;;;;;7.90;99.90;;;;;;2605307;47;19954;-78
2024/01/29 11:45:46;;;;;;;;;;;7.90;99.90;;;;;;2603407;39;20370;-77
2024/01/29 11:48:17;;;;;;;;;;;7.60;99.90;;;;;;2600726;47;19946;-75
2024/01/29 11:50:51;;;;;;;;;;;7.30;99.90;;;;;;2599796;49;19958;-79
2024/01/29 11:53:23;;;;;;;;;;;7.10;99.90;;;;;;2603336;54;19946;-78
2024/01/29 11:55:53;;;;;;;;;;;6.90;99.90;;;;;;2599119;47;19950;-77
2024/01/29 11:58:23;;;;;;;;;;;6.90;99.90;;;;;;2597710;47;21391;-77
2024/01/29 12:00:54;;;;;;;;;;;7.10;99.90;;;;;;2598781;47;20572;-75
2024/01/29 12:03:26;;;;;;;;;;;7.10;99.90;;;;;;2597202;54;19946;-76
2024/01/29 12:05:58;;;;;;;;;;;7.30;99.90;;;;;;2598012;47;20066;-76
2024/01/29 12:08:30;;;;;;;;;;;7.30;99.90;;;;;;2598805;51;19942;-75
2024/01/29 12:11:00;;;;;;;;;;;7.30;99.90;;;;;;2598048;54;19958;-76
2024/01/29 12:13:30;;;;;;;;;;;7.40;99.90;;;;;;2598477;46;19955;-77
2024/01/29 12:16:02;;;;;;;;;;;7.40;99.90;;;;;;2599437;54;20050;-74
2024/01/29 12:18:32;;;;;;;;;;;7.50;99.90;;;;;;2600234;47;19971;-74
2024/01/29 12:21:04;;;;;;;;;;;7.50;99.90;;;;;;2598482;54;19989;-73
2024/01/29 12:23:34;;;;;;;;;;;7.50;99.90;;;;;;2598603;46;19981;-74
2024/01/29 12:26:04;;;;;;;;;;;7.60;99.90;;;;;;2596249;54;20038;-75
2024/01/29 12:28:33;;;;;;;;;;;7.60;99.90;;;;;;2597779;54;19947;-75
2024/01/29 12:31:06;;;;;;;;;;;7.60;99.90;;;;;;2598220;39;20417;-78
2024/01/29 12:33:36;;;;;;;;;;;6.50;99.90;;;;;;2596485;54;21296;-74
2024/01/29 12:36:17;;;;;;;;;;;7.60;99.90;;;;;;2596679;47;19951;-75
2024/01/29 12:38:53;;;;;;;;;;;7.60;99.90;;;;;;2599582;54;19946;-74
2024/01/29 12:41:25;;;;;;;;;;;7.70;99.90;;;;;;2600113;47;19954;-65
2024/01/29 12:43:55;;;;;;;;;;;7.70;99.90;;;;;;2600916;54;19954;-75
2024/01/29 12:46:25;;;;;;;;;;;7.80;99.90;;;;;;2600769;54;20832;-76
2024/01/29 12:48:56;;;;;;;;;;;8.30;99.90;;;;;;2601022;54;20088;-76
2024/01/29 12:51:29;;;;;;;;;;;7.90;99.90;;;;;;2600404;54;19950;-75
2024/01/29 12:53:59;;;;;;;;;;;7.90;99.90;;;;;;2598897;46;19955;-73
2024/01/29 12:56:30;;;;;;;;;;;8.00;99.90;;;;;;2609150;54;20063;-73
2024/01/29 12:59:06;;;;;;;;;;;8.00;99.90;;;;;;2616679;50;19949;-72
2024/01/29 13:01:36;;;;;;;;;;;8.00;99.90;;;;;;2615766;47;19949;-76
2024/01/29 13:04:06;;;;;;;;;;;8.10;99.90;;;;;;2614210;47;19981;-77
2024/01/29 13:06:38;;;;;;;;;;;8.10;99.90;;;;;;2616126;39;20090;-74
2024/01/29 13:09:08;;;;;;;;;;;8.10;99.90;;;;;;2621414;54;19957;-76
2024/01/29 13:11:38;;;;;;;;;;;8.80;99.90;;;;;;2620942;54;19946;-75
2024/01/29 13:14:07;;;;;;;;;;;8.20;99.90;;;;;;2617403;51;19938;-76
2024/01/29 13:16:37;;;;;;;;;;;8.20;99.90;;;;;;2614558;54;19951;-73
2024/01/29 13:19:07;;;;;;;;;;;8.30;99.90;;;;;;2616142;47;19992;-73
2024/01/29 13:21:41;;;;;;;;;;;8.30;99.90;;;;;;2615838;47;19942;-72
2024/01/29 13:24:11;;;;;;;;;;;8.30;99.90;;;;;;2615632;47;19947;-73
2024/01/29 13:26:41;;;;;;;;;;;8.40;99.90;;;;;;2615953;54;19947;-74
2024/01/29 13:29:11;;;;;;;;;;;8.40;99.90;;;;;;2615978;54;20030;-74
2024/01/29 13:31:41;;;;;;;;;;;8.40;99.90;;;;;;2616275;54;19946;-74
2024/01/29 13:34:11;;;;;;;;;;;8.50;99.90;;;;;;2617619;54;19939;-74
2024/01/29 13:36:43;;;;;;;;;;;8.60;99.90;;;;;;2615884;54;19990;-76
2024/01/29 13:39:13;;;;;;;;;;;8.60;99.90;;;;;;2614833;54;19969;-76
2024/01/29 13:41:44;;;;;;;;;;;8.70;99.90;;;;;;2615850;54;19957;-72
2024/01/29 13:44:14;;;;;;;;;;;8.70;99.90;;;;;;2615170;54;19958;-71
2024/01/29 13:46:43;;;;;;;;;;;8.70;99.90;;;;;;2616470;39;20398;-72
2024/01/29 13:49:13;;;;;;;;;;;8.60;99.90;;;;;;2617767;54;19953;-71
2024/01/29 13:51:46;;;;;;;;;;;8.70;99.90;;;;;;2618017;54;19946;-71
2024/01/29 13:54:16;;;;;;;;;;;8.70;99.90;;;;;;2616884;31;20439;-73
2024/01/29 13:56:43;;;;;;;;;;;8.80;99.90;;;;;;2615678;47;19958;-73
2024/01/29 13:59:13;;;;;;;;;;;8.80;99.90;;;;;;2615358;54;19947;-75
2024/01/29 14:01:43;;;;;;;;;;;8.90;99.90;;;;;;2616104;54;19994;-73
2024/01/29 14:04:13;;;;;;;;;;;9.00;99.90;;;;;;2619683;39;20458;-72
2024/01/29 14:06:46;;;;;;;;;;;9.00;99.90;;;;;;2599136;54;19951;-75
2024/01/29 14:09:16;;;;;;;;;;;9.10;99.90;;;;;;2603447;54;19946;-73
2024/01/29 14:11:46;;;;;;;;;;;9.10;99.90;;;;;;2605616;54;20486;-74
2024/01/29 14:14:16;;;;;;;;;;;9.30;99.90;;;;;;2606138;54;19954;-72
2024/01/29 14:16:50;;;;;;;;;;;9.30;99.90;;;;;;2606899;54;19958;-75
2024/01/29 14:19:20;;;;;;;;;;;9.40;99.90;;;;;;2606485;54;19958;-73
2024/01/29 14:21:52;;;;;;;;;;;9.40;99.90;;;;;;2606530;54;20006;-74
2024/01/29 14:24:22;;;;;;;;;;;9.40;99.90;;;;;;2602385;47;19950;-74
2024/01/29 14:26:52;;;;;;;;;;;9.50;99.90;;;;;;2601317;54;19947;-73
2024/01/29 14:29:22;;;;;;;;;;;9.40;99.90;;;;;;2600410;31;20485;-72
2024/01/29 14:31:55;;;;;;;;;;;9.50;99.90;;;;;;2599286;47;19974;-72
2024/01/29 14:34:25;;;;;;;;;;;9.50;99.90;;;;;;2597737;54;19962;-74
2024/01/29 14:36:58;;;;;;;;;;;9.50;99.90;;;;;;2597818;54;19962;-72
2024/01/29 14:39:28;;;;;;;;;;;10.80;99.90;;;;;;2595263;54;19958;-72
2024/01/29 14:41:58;;;;;;;;;;;9.60;99.90;;;;;;2597239;54;19953;-73
2024/01/29 14:44:28;;;;;;;;;;;9.70;99.90;;;;;;2597181;54;19969;-73
2024/01/29 14:47:02;;;;;;;;;;;9.70;99.90;;;;;;2595415;54;19954;-73
2024/01/29 14:49:33;;;;;;;;;;;9.50;99.90;;;;;;2597621;47;20037;-73
2024/01/29 14:52:05;;;;;;;;;;;9.70;99.90;;;;;;2599157;47;19951;-73
2024/01/29 14:54:35;;;;;;;;;;;9.70;99.90;;;;;;2602649;54;19950;-74
2024/01/29 14:57:06;;;;;;;;;;;9.70;99.90;;;;;;2601895;54;19950;-74
2024/01/29 14:59:36;;;;;;;;;;;9.70;99.90;;;;;;2596858;46;19966;-75
2024/01/29 15:02:06;;;;;;;;;;;9.60;99.90;;;;;;2595191;54;20679;-72
2024/01/29 15:04:36;;;;;;;;;;;9.60;99.90;;;;;;2597003;54;19950;-74
2024/01/29 15:07:09;;;;;;;;;;;9.60;99.90;;;;;;2594895;39;20383;-71
2024/01/29 15:09:39;;;;;;;;;;;9.60;99.90;;;;;;2594526;54;19946;-72
2024/01/29 15:12:11;;;;;;;;;;;9.60;99.90;;;;;;2596110;54;20007;-72
2024/01/29 15:14:40;;;;;;;;;;;9.60;99.90;;;;;;2596657;54;19958;-72
2024/01/29 15:17:10;;;;;;;;;;;9.60;99.90;;;;;;2595985;47;20039;-72
2024/01/29 15:19:40;;;;;;;;;;;9.60;99.90;;;;;;2596439;54;19957;-71
2024/01/29 15:22:13;;;;;;;;;;;9.50;99.90;;;;;;2596847;54;19946;-71
2024/01/29 15:24:45;;;;;;;;;;;9.50;99.90;;;;;;2597710;46;20055;-71
2024/01/29 15:27:14;;;;;;;;;;;9.50;99.90;;;;;;2594956;54;19958;-70
2024/01/29 15:29:44;;;;;;;;;;;9.50;99.90;;;;;;2597016;39;20253;-69
2024/01/29 15:32:14;;;;;;;;;;;9.40;99.90;;;;;;2597306;54;20568;-69
2024/01/29 15:34:47;;;;;;;;;;;9.40;99.90;;;;;;2596389;54;20660;-70
2024/01/29 15:37:20;;;;;;;;;;;9.40;99.90;;;;;;2595911;54;19959;-71
2024/01/29 15:39:50;;;;;;;;;;;9.40;99.90;;;;;;2595960;54;19957;-71
2024/01/29 15:42:20;;;;;;;;;;;8.00;99.90;;;;;;2596722;54;19947;-70
2024/01/29 15:44:50;;;;;;;;;;;9.30;99.90;;;;;;2599953;47;19951;-69
2024/01/29 15:47:20;;;;;;;;;;;9.30;99.90;;;;;;2608551;47;19962;-78
2024/01/29 15:49:50;;;;;;;;;;;9.30;99.90;;;;;;2609265;39;20496;-77
2024/01/29 15:52:22;;;;;;;;;;;9.20;99.90;;;;;;2608958;46;19950;-78
2024/01/29 15:54:52;;;;;;;;;;;9.20;99.90;;;;;;2609584;47;19934;-77
2024/01/29 15:57:22;;;;;;;;;;;9.10;99.90;;;;;;2608883;47;19954;-77
2024/01/29 15:59:53;;;;;;;;;;;9.10;99.90;;;;;;2612979;54;19935;-81
2024/01/29 16:02:23;;;;;;;;;;;9.00;99.90;;;;;;2613946;47;19981;-78
2024/01/29 16:04:54;;;;;;;;;;;8.90;99.90;;;;;;2612104;47;19990;-80
2024/01/29 16:07:27;;;;;;;;;;;9.50;99.90;;;;;;2625268;46;19983;-81
2024/01/29 16:09:57;;;;;;;;;;;8.80;99.90;;;;;;2623645;47;19994;-79
2024/01/29 16:12:27;;;;;;;;;;;8.70;99.90;;;;;;2621966;47;19947;-80
2024/01/29 16:14:57;;;;;;;;;;;8.70;99.90;;;;;;2624293;47;19945;-82
2024/01/29 16:17:28;;;;;;;;;;;8.60;99.90;;;;;;2623515;31;20385;-80
2024/01/29 16:19:59;;;;;;;;;;;8.70;99.90;;;;;;2624209;54;19953;-80
2024/01/29 16:22:31;;;;;;;;;;;8.50;99.90;;;;;;2620624;54;20449;-78
2024/01/29 16:25:01;;;;;;;;;;;8.40;99.90;;;;;;2622556;54;19946;-79
2024/01/29 16:27:31;;;;;;;;;;;8.30;99.90;;;;;;2625936;47;19946;-79
2024/01/29 16:30:01;;;;;;;;;;;8.70;99.90;;;;;;2620559;46;20050;-78
2024/01/29 16:32:31;;;;;;;;;;;8.30;99.90;;;;;;2619352;54;19973;-79
2024/01/29 16:35:01;;;;;;;;;;;8.20;99.90;;;;;;2616188;47;20455;-77
2024/01/29 16:37:34;;;;;;;;;;;8.20;99.90;;;;;;2630320;47;19942;-80
2024/01/29 16:40:04;;;;;;;;;;;8.10;99.90;;;;;;2627603;47;19946;-81
2024/01/29 16:42:39;;;;;;;;;;;8.00;99.90;;;;;;2630188;46;19972;-84
2024/01/29 16:45:10;;;;;;;;;;;8.00;99.90;;;;;;2630240;47;19952;-82
2024/01/29 16:47:44;;;;;;;;;;;7.90;99.90;;;;;;2629928;47;19938;-82
2024/01/29 16:50:14;;;;;;;;;;;7.60;99.90;;;;;;2628724;54;19950;-83
2024/01/29 16:52:47;;;;;;;;;;;7.90;99.90;;;;;;2629475;39;20420;-82
2024/01/29 16:55:17;;;;;;;;;;;7.90;99.90;;;;;;2629454;46;19942;-81
2024/01/29 16:57:48;;;;;;;;;;;7.80;99.90;;;;;;2630378;47;19973;-85
2024/01/29 17:00:19;;;;;;;;;;;7.70;99.90;;;;;;2622714;46;19946;-78
2024/01/29 17:02:49;;;;;;;;;;;7.60;99.90;;;;;;2617933;54;19962;-79
2024/01/29 17:05:20;;;;;;;;;;;8.70;99.90;;;;;;2616881;54;20770;-79
2024/01/29 17:07:53;;;;;;;;;;;8.50;99.90;;;;;;2620760;47;19946;-80
2024/01/29 17:10:22;;;;;;;;;;;7.60;99.90;;;;;;2617166;47;20108;-78
2024/01/29 17:12:52;;;;;;;;;;;7.60;99.90;;;;;;2616997;47;20766;-78
2024/01/29 17:15:22;;;;;;;;;;;7.50;99.90;;;;;;2617232;54;19958;-79
2024/01/29 17:17:52;;;;;;;;;;;7.50;99.90;;;;;;2626685;47;19957;-78
2024/01/29 17:20:22;;;;;;;;;;;7.50;99.90;;;;;;2622940;47;19950;-78
2024/01/29 17:22:54;;;;;;;;;;;7.40;99.90;;;;;;2620693;47;19939;-79
2024/01/29 17:25:24;;;;;;;;;;;7.40;99.90;;;;;;2623085;47;19951;-79
2024/01/29 17:27:54;;;;;;;;;;;7.30;99.90;;;;;;2616205;47;19935;-80
2024/01/29 17:30:24;;;;;;;;;;;7.30;99.90;;;;;;2615206;54;19947;-79
2024/01/29 17:32:54;;;;;;;;;;;7.20;99.90;;;;;;2615660;47;19955;-79
2024/01/29 17:35:24;;;;;;;;;;;7.20;99.90;;;;;;2616330;54;19947;-79
2024/01/29 17:37:56;;;;;;;;;;;7.10;99.90;;;;;;2616679;54;19950;-80
2024/01/29 17:40:26;;;;;;;;;;;7.10;99.90;;;;;;2622229;46;20472;-79
2024/01/29 17:42:56;;;;;;;;;;;7.10;99.90;;;;;;2622749;54;19950;-78
2024/01/29 17:45:25;;;;;;;;;;;7.10;99.90;;;;;;2620574;54;20127;-79
2024/01/29 17:47:56;;;;;;;;;;;7.10;99.90;;;;;;2615779;47;20037;-79
2024/01/29 17:50:26;;;;;;;;;;;7.00;99.90;;;;;;2616933;39;20036;-80
2024/01/29 17:52:59;;;;;;;;;;;7.00;99.90;;;;;;2621071;47;19947;-79
2024/01/29 17:55:29;;;;;;;;;;;6.90;99.90;;;;;;2622986;47;19953;-79
2024/01/29 17:57:59;;;;;;;;;;;7.00;99.90;;;;;;2625907;39;20202;-78
2024/01/29 18:00:29;;;;;;;;;;;6.90;99.90;;;;;;2621653;46;20054;-80
2024/01/29 18:02:59;;;;;;;;;;;6.90;99.90;;;;;;2621011;46;19939;-80
2024/01/29 18:05:28;;;;;;;;;;;6.90;99.90;;;;;;2620308;47;19946;-78
2024/01/29 18:08:01;;;;;;;;;;;6.80;99.90;;;;;;2621957;46;20004;-80
2024/01/29 18:10:31;;;;;;;;;;;7.00;99.90;;;;;;2621537;54;19938;-79
2024/01/29 18:13:00;;;;;;;;;;;6.80;99.90;;;;;;2619777;46;19947;-78
2024/01/29 18:15:30;;;;;;;;;;;6.80;99.90;;;;;;2618924;54;20118;-79
2024/01/29 18:18:00;;;;;;;;;;;6.70;99.90;;;;;;2617911;47;20315;-78
2024/01/29 18:20:30;;;;;;;;;;;6.70;99.90;;;;;;2619736;54;19939;-80
2024/01/29 18:23:03;;;;;;;;;;;6.70;99.90;;;;;;2625002;39;20371;-80
2024/01/29 18:25:33;;;;;;;;;;;6.80;99.90;;;;;;2625653;47;19993;-81
2024/01/29 18:28:05;;;;;;;;;;;6.60;99.90;;;;;;2625186;47;19946;-81
2024/01/29 18:30:35;;;;;;;;;;;6.60;99.90;;;;;;2624575;47;19946;-83
2024/01/29 18:33:03;;;;;;;;;;;6.60;99.90;;;;;;2618308;39;21399;-74
2024/01/29 18:35:33;;;;;;;;;;;6.50;99.90;;;;;;2607784;54;19947;-76
2024/01/29 18:38:06;;;;;;;;;;;6.50;99.90;;;;;;2614659;47;19954;-76